Time;durP1;ratioP1;P1;durP2;ratioP2;P2;SDS_P1;SDS_P2;PMS_P1;PMS_P2;Temp;Humidity;BMP_temperature;BMP_pressure;BME280_temperature;BME280_humidity;BME280_pressure;Samples;Min_cycle;Max_cycle;Signal;HPM_P1;HPM_P2
2022/05/05 00:01:20;;;;;;;20.95;13.48;;;17.30;62.70;;;;;;7377903;19;20035;-83
2022/05/05 00:03:50;;;;;;;20.23;12.82;;;17.20;62.60;;;;;;7372500;19;20415;-83
2022/05/05 00:06:23;;;;;;;21.08;12.82;;;17.20;62.70;;;;;;7366102;19;20130;-82
2022/05/05 00:08:52;;;;;;;18.58;13.00;;;17.20;62.80;;;;;;7368567;19;20042;-81
2022/05/05 00:16:46;;;;;;;19.45;13.00;;;16.90;63.30;;;;;;7368417;19;20029;-82
2022/05/05 00:19:16;;;;;;;18.23;12.80;;;16.90;63.50;;;;;;7367904;19;20018;-81
2022/05/05 00:21:45;;;;;;;22.13;12.85;;;16.80;63.50;;;;;;7368015;19;20014;-83
2022/05/05 00:24:18;;;;;;;20.50;13.75;;;16.70;63.40;;;;;;7371056;19;20450;-82
2022/05/05 00:26:48;;;;;;;18.40;12.10;;;16.70;63.20;;;;;;7376347;19;20014;-82
2022/05/05 00:29:19;;;;;;;19.83;12.68;;;16.70;62.80;;;;;;7370681;19;20019;-82
2022/05/05 00:31:48;;;;;;;;;;;16.80;62.30;;;;;;7389156;19;20018;-81
2022/05/05 00:34:17;;;;;;;15.55;10.85;;;16.80;61.90;;;;;;7366195;19;20022;-81
2022/05/05 00:36:47;;;;;;;16.70;11.02;;;16.80;61.50;;;;;;7367982;19;20011;-82
2022/05/05 00:39:16;;;;;;;15.88;10.88;;;16.80;61.30;;;;;;7367567;19;20034;-81
2022/05/05 00:41:47;;;;;;;17.02;11.88;;;16.80;61.30;;;;;;7366798;19;20093;-82
2022/05/05 00:44:20;;;;;;;17.43;11.83;;;16.80;61.40;;;;;;7365044;19;20022;-81
2022/05/05 00:46:52;;;;;;;20.08;12.10;;;16.80;61.40;;;;;;7385911;19;20014;-82
2022/05/05 00:49:22;;;;;;;16.05;11.57;;;16.80;61.40;;;;;;7366795;19;20044;-82
2022/05/05 00:51:51;;;;;;;17.65;11.38;;;16.80;61.20;;;;;;7375137;19;20015;-82
2022/05/05 00:54:21;;;;;;;17.00;11.18;;;16.80;60.90;;;;;;7373274;19;20021;-82
2022/05/05 00:56:54;;;;;;;16.52;11.13;;;16.80;60.70;;;;;;7367751;19;20019;-82
2022/05/05 00:59:26;;;;;;;13.15;9.75;;;16.70;60.40;;;;;;7369224;19;20015;-82
2022/05/05 01:01:55;;;;;;;14.07;10.13;;;16.70;60.20;;;;;;7392648;19;20011;-83
2022/05/05 01:04:31;;;;;;;13.43;9.48;;;16.70;60.00;;;;;;7373130;19;20006;-82
2022/05/05 01:07:10;;;;;;;15.48;9.80;;;16.70;59.90;;;;;;7374442;19;20018;-82
2022/05/05 01:09:40;;;;;;;12.57;9.02;;;16.60;59.50;;;;;;7372599;19;20458;-82
2022/05/05 01:12:11;;;;;;;14.10;8.52;;;16.60;59.40;;;;;;7373467;19;20022;-82
2022/05/05 01:14:44;;;;;;;14.95;9.13;;;16.60;59.50;;;;;;7373771;19;20021;-82
2022/05/05 01:17:14;;;;;;;14.20;9.10;;;16.60;59.40;;;;;;7380635;19;20014;-83
2022/05/05 01:19:43;;;;;;;15.38;10.05;;;16.60;59.40;;;;;;7400578;19;20012;-82
2022/05/05 01:22:15;;;;;;;15.40;9.10;;;16.50;59.50;;;;;;7373037;19;20014;-82
2022/05/05 01:30:08;;;;;;;11.63;8.05;;;16.50;59.20;;;;;;7376618;19;20022;-82
2022/05/05 01:32:37;;;;;;;11.85;8.20;;;16.50;59.30;;;;;;7371748;19;20454;-81
2022/05/05 01:35:07;;;;;;;11.77;8.63;;;16.50;59.20;;;;;;7392397;19;20014;-81
2022/05/05 01:37:39;;;;;;;11.23;7.93;;;16.50;59.30;;;;;;7374237;19;20597;-81
2022/05/05 01:40:08;;;;;;;;;;;16.40;59.20;;;;;;7369442;19;20501;-81
2022/05/05 01:42:38;;;;;;;11.32;7.55;;;16.40;59.10;;;;;;7375554;19;20296;-81
2022/05/05 01:45:08;;;;;;;13.55;7.70;;;16.40;59.00;;;;;;7381961;19;20036;-80
2022/05/05 01:47:37;;;;;;;11.20;7.30;;;16.40;58.90;;;;;;7375129;19;20019;-80
2022/05/05 01:50:08;;;;;;;10.85;6.85;;;16.40;58.80;;;;;;7396378;19;20015;-80
2022/05/05 01:52:40;;;;;;;11.70;7.40;;;16.40;58.70;;;;;;7373750;19;20011;-80
2022/05/05 01:55:08;;;;;;;;;;;16.40;58.70;;;;;;7373587;19;20010;-80
2022/05/05 01:57:37;;;;;;;9.82;6.82;;;16.40;58.60;;;;;;7371469;19;19922;-80
2022/05/05 02:00:07;;;;;;;10.27;7.05;;;16.40;58.30;;;;;;7371882;19;20015;-81
2022/05/05 02:02:36;;;;;;;9.50;6.45;;;16.30;58.30;;;;;;7373383;19;20386;-80
2022/05/05 02:05:06;;;;;;;8.48;6.07;;;16.30;58.30;;;;;;7395348;19;20036;-80
2022/05/05 02:07:35;;;;;;;9.80;6.22;;;16.30;58.30;;;;;;7374906;19;20339;-81
2022/05/05 02:10:08;;;;;;;11.63;6.60;;;16.30;58.20;;;;;;7381008;19;20078;-80
2022/05/05 02:12:38;;;;;;;11.43;6.72;;;16.30;58.20;;;;;;7375124;19;20485;-80
2022/05/05 02:15:08;;;;;;;9.65;6.80;;;16.30;58.20;;;;;;7370543;19;20685;-80
2022/05/05 02:17:38;;;;;;;10.63;7.35;;;16.20;58.20;;;;;;7371868;19;20014;-80
2022/05/05 02:20:11;;;;;;;10.48;6.53;;;16.20;58.20;;;;;;7389940;19;20094;-80
2022/05/05 02:22:40;;;;;;;10.45;6.40;;;16.20;58.30;;;;;;7373218;19;20034;-80
2022/05/05 02:25:12;;;;;;;9.90;7.32;;;16.10;58.20;;;;;;7370830;19;20480;-80
2022/05/05 02:27:53;;;;;;;11.52;7.47;;;16.10;58.30;;;;;;7372645;19;20118;-80
2022/05/05 02:30:24;;;;;;;15.35;8.95;;;16.10;58.50;;;;;;7372542;19;20443;-79
2022/05/05 02:32:53;;;;;;;12.32;8.02;;;16.00;58.70;;;;;;7371915;19;20074;-80
2022/05/05 02:35:22;;;;;;;10.55;7.30;;;16.00;58.70;;;;;;7373768;19;20027;-81
2022/05/05 02:40:35;;;;;;;12.40;7.65;;;15.90;58.70;;;;;;7369157;19;20018;-80
2022/05/05 02:43:03;;;;;;;;;;;15.80;58.60;;;;;;7372268;19;20466;-80
2022/05/05 02:45:32;;;;;;;10.68;6.85;;;15.80;58.40;;;;;;7371977;19;19918;-79
2022/05/05 02:48:01;;;;;;;9.45;6.80;;;15.80;58.20;;;;;;7370836;19;20038;-81
2022/05/05 02:50:30;;;;;;;12.05;7.30;;;15.80;58.20;;;;;;7371003;19;20123;-80
2022/05/05 02:52:59;;;;;;;11.40;6.95;;;15.80;58.20;;;;;;7392209;19;20022;-80
2022/05/05 02:55:26;;;;;;;15.50;9.95;;;15.80;58.10;;;;;;7368102;19;20082;-80
2022/05/05 02:57:58;;;;;;;16.20;9.55;;;15.80;58.40;;;;;;7371103;19;20014;-80
2022/05/05 03:00:27;;;;;;;13.20;9.43;;;15.70;58.80;;;;;;7373500;19;20022;-80
2022/05/05 03:02:56;;;;;;;14.93;9.57;;;15.70;59.30;;;;;;7380028;19;20025;-80
2022/05/05 03:05:25;;;;;;;16.17;9.60;;;15.60;59.90;;;;;;7371897;19;20125;-80
2022/05/05 03:07:53;;;;;;;14.73;8.88;;;15.60;59.30;;;;;;7392311;19;20018;-80
2022/05/05 03:10:22;;;;;;;12.52;7.95;;;15.60;59.00;;;;;;7369400;19;20029;-80
2022/05/05 03:12:51;;;;;;;10.98;7.95;;;15.60;59.00;;;;;;7369633;19;20091;-80
2022/05/05 03:15:22;;;;;;;13.90;8.10;;;15.60;58.80;;;;;;7368951;19;20117;-80
2022/05/05 03:17:51;;;;;;;13.18;8.52;;;15.60;58.70;;;;;;7371094;19;20014;-80
2022/05/05 03:20:19;;;;;;;11.93;8.45;;;15.60;58.70;;;;;;7369536;19;20016;-80
2022/05/05 03:22:48;;;;;;;14.38;8.38;;;15.50;58.60;;;;;;7389880;19;20014;-80
2022/05/05 03:25:17;;;;;;;17.10;8.95;;;15.50;58.40;;;;;;7369550;19;20010;-80
2022/05/05 03:27:46;;;;;;;18.42;9.80;;;15.50;58.40;;;;;;7376166;19;20702;-80
2022/05/05 03:30:15;;;;;;;16.30;8.85;;;15.50;58.30;;;;;;7375265;19;20011;-79
2022/05/05 03:32:46;;;;;;;15.43;8.95;;;15.50;58.30;;;;;;7370010;19;20117;-79
2022/05/05 03:35:15;;;;;;;15.98;9.63;;;15.40;58.10;;;;;;7369253;19;20039;-80
2022/05/05 03:37:43;;;;;;;17.13;8.95;;;15.40;58.20;;;;;;7391102;19;20015;-79
2022/05/05 03:40:13;;;;;;;15.48;9.38;;;15.40;58.20;;;;;;7368331;19;20449;-79
2022/05/05 03:42:42;;;;;;;13.10;8.75;;;15.40;58.40;;;;;;7368754;19;20010;-80
2022/05/05 03:45:11;;;;;;;14.23;8.35;;;15.40;58.40;;;;;;7369861;19;20130;-80
2022/05/05 03:47:40;;;;;;;14.35;8.80;;;15.40;58.40;;;;;;7369108;19;20815;-80
2022/05/05 03:50:12;;;;;;;12.65;8.27;;;15.40;58.50;;;;;;7379907;19;20078;-80
2022/05/05 03:52:41;;;;;;;14.27;8.70;;;15.40;58.50;;;;;;7393652;19;20027;-80
2022/05/05 03:55:11;;;;;;;13.38;8.25;;;15.40;58.50;;;;;;7376551;19;20031;-80
2022/05/05 03:57:39;;;;;;;13.43;7.80;;;15.40;58.40;;;;;;7370285;19;20019;-80
2022/05/05 04:00:10;;;;;;;12.60;8.45;;;15.40;58.40;;;;;;7369585;19;20024;-80
2022/05/05 04:02:38;;;;;;;13.77;9.00;;;15.40;58.50;;;;;;7369096;19;20018;-80
2022/05/05 04:05:11;;;;;;;14.43;8.98;;;15.40;58.70;;;;;;7390062;19;20078;-80
2022/05/05 04:07:40;;;;;;;13.50;8.27;;;15.40;58.80;;;;;;7367798;19;20027;-81
2022/05/05 04:10:10;;;;;;;11.45;8.23;;;15.40;58.90;;;;;;7367472;19;20066;-81
2022/05/05 04:12:38;;;;;;;14.35;9.30;;;15.40;59.00;;;;;;7367051;19;20093;-81
2022/05/05 04:15:08;;;;;;;14.65;9.63;;;15.40;59.10;;;;;;7368368;19;20010;-81
2022/05/05 04:17:37;;;;;;;15.48;9.93;;;15.40;59.10;;;;;;7367746;19;20027;-81
2022/05/05 04:20:07;;;;;;;17.95;11.00;;;15.40;59.20;;;;;;7392118;19;20014;-83
2022/05/05 04:22:38;;;;;;;17.45;11.25;;;15.40;59.50;;;;;;7371021;19;20059;-81
2022/05/05 04:25:08;;;;;;;22.02;12.20;;;15.30;59.80;;;;;;7368753;19;20395;-82
2022/05/05 04:27:38;;;;;;;17.27;10.85;;;15.30;60.20;;;;;;7369110;19;20296;-81
2022/05/05 04:30:10;;;;;;;19.35;11.68;;;15.20;60.50;;;;;;7367774;19;20014;-81
2022/05/05 04:32:38;;;;;;;16.75;10.73;;;15.20;61.50;;;;;;7368975;19;20416;-80
2022/05/05 04:35:08;;;;;;;18.95;10.65;;;15.20;60.80;;;;;;7389263;19;20014;-80
2022/05/05 04:37:40;;;;;;;20.27;11.05;;;15.20;61.10;;;;;;7367935;19;20014;-81
2022/05/05 04:40:10;;;;;;;;;;;15.20;61.20;;;;;;7367596;19;20089;-80
2022/05/05 04:42:40;;;;;;;19.35;11.48;;;15.10;61.70;;;;;;7367947;19;19925;-80
2022/05/05 04:45:13;;;;;;;22.40;12.95;;;15.00;62.20;;;;;;7369108;19;20308;-86
2022/05/05 04:47:43;;;;;;;24.20;13.55;;;14.90;63.40;;;;;;7371195;19;20014;-83
2022/05/05 04:50:12;;;;;;;35.60;20.35;;;14.70;64.60;;;;;;7367767;19;20090;-83
2022/05/05 04:52:44;;;;;;;26.23;15.63;;;14.70;65.20;;;;;;7390258;19;20015;-83
2022/05/05 04:55:12;;;;;;;;;;;14.70;65.50;;;;;;7369521;19;20432;-82
2022/05/05 04:57:41;;;;;;;28.02;15.68;;;14.80;65.80;;;;;;7367195;19;19918;-81
2022/05/05 05:00:11;;;;;;;31.77;16.70;;;14.70;65.90;;;;;;7366715;19;20014;-80
2022/05/05 05:02:40;;;;;;;33.28;18.58;;;14.80;66.10;;;;;;7367616;19;20011;-86
2022/05/05 05:05:10;;;;;;;32.70;17.48;;;14.90;66.00;;;;;;7381072;19;20024;-76
2022/05/05 05:07:38;;;;;;;35.20;17.60;;;14.90;66.20;;;;;;7385891;19;20098;-77
2022/05/05 05:10:11;;;;;;;32.08;17.40;;;15.00;66.60;;;;;;7365926;19;20082;-76
2022/05/05 05:12:40;;;;;;;33.65;18.30;;;15.00;66.60;;;;;;7367264;19;20015;-75
2022/05/05 05:15:11;;;;;;;37.78;19.58;;;15.00;66.70;;;;;;7268129;19;20075;-88
2022/05/05 05:17:40;;;;;;;37.30;19.70;;;15.10;66.40;;;;;;7400001;19;20021;-76
2022/05/05 05:20:10;;;;;;;34.38;18.60;;;15.10;66.50;;;;;;7383104;19;20046;-76
2022/05/05 05:22:39;;;;;;;34.10;18.98;;;15.10;66.50;;;;;;7387067;19;20040;-80
2022/05/05 05:25:11;;;;;;;43.25;21.10;;;15.20;66.60;;;;;;7365186;19;20007;-81
2022/05/05 05:27:40;;;;;;;45.45;22.90;;;15.30;66.40;;;;;;7364553;19;20007;-74
2022/05/05 05:30:10;;;;;;;48.20;27.85;;;15.00;66.70;;;;;;7366631;19;20085;-75
2022/05/05 05:32:39;;;;;;;44.58;21.83;;;15.10;66.80;;;;;;7365022;19;20087;-75
2022/05/05 05:35:09;;;;;;;41.75;21.75;;;15.20;66.70;;;;;;7386827;19;20442;-77
2022/05/05 05:37:37;;;;;;;42.28;22.17;;;15.30;66.70;;;;;;7386706;19;20014;-75
2022/05/05 05:40:10;;;;;;;41.35;21.70;;;15.30;66.50;;;;;;7363270;19;20601;-75
2022/05/05 05:42:39;;;;;;;42.95;22.63;;;15.40;66.40;;;;;;7364295;19;20014;-76
2022/05/05 05:45:10;;;;;;;42.42;21.55;;;15.30;66.50;;;;;;7368715;19;20010;-80
2022/05/05 05:47:39;;;;;;;59.63;34.47;;;15.40;66.90;;;;;;7372750;19;20075;-81
2022/05/05 05:50:08;;;;;;;48.30;23.13;;;15.30;66.80;;;;;;7392925;19;20011;-81
2022/05/05 05:52:43;;;;;;;47.78;24.13;;;15.30;67.10;;;;;;7373558;19;20007;-89
2022/05/05 05:55:15;;;;;;;42.70;21.52;;;15.40;67.10;;;;;;7321327;19;20705;-81
2022/05/05 05:57:44;;;;;;;48.55;23.60;;;15.40;67.00;;;;;;7395635;19;20055;-81
2022/05/05 06:00:14;;;;;;;40.90;22.73;;;15.50;66.90;;;;;;7370752;19;20081;-81
2022/05/05 06:05:24;;;;;;;45.97;23.45;;;15.70;66.60;;;;;;7380995;19;20057;-82
2022/05/05 06:07:52;;;;;;;43.50;22.40;;;15.70;66.40;;;;;;7396386;19;20022;-80
2022/05/05 06:10:24;;;;;;;44.33;22.58;;;15.80;67.20;;;;;;7372998;19;20427;-82
2022/05/05 06:12:52;;;;;;;43.78;23.83;;;15.90;66.20;;;;;;7373372;19;20017;-81
2022/05/05 06:15:22;;;;;;;43.75;23.55;;;15.90;65.80;;;;;;7372526;19;20424;-80
2022/05/05 06:17:51;;;;;;;44.28;23.17;;;15.90;65.80;;;;;;7371540;19;20025;-80
2022/05/05 06:20:20;;;;;;;47.35;23.95;;;15.90;65.80;;;;;;7371604;19;20015;-80
2022/05/05 06:22:50;;;;;;;45.35;23.85;;;15.90;65.80;;;;;;7394815;19;20053;-80
2022/05/05 06:25:20;;;;;;;46.05;24.45;;;15.90;66.10;;;;;;7372124;19;20480;-80
2022/05/05 06:27:59;;;;;;;44.13;24.35;;;15.70;67.20;;;;;;7372044;19;20147;-80
2022/05/05 06:30:28;;;;;;;44.05;23.83;;;15.60;66.70;;;;;;7375396;19;20106;-80
2022/05/05 06:32:57;;;;;;;42.10;22.88;;;15.80;66.90;;;;;;7378191;19;20010;-80
2022/05/05 06:35:26;;;;;;;40.33;22.98;;;15.80;66.70;;;;;;7369586;19;20105;-80
2022/05/05 06:37:54;;;;;;;44.10;23.55;;;15.90;66.70;;;;;;7391048;19;20023;-80
2022/05/05 06:40:24;;;;;;;42.30;22.10;;;16.00;66.50;;;;;;7369916;19;20011;-80
2022/05/05 06:42:56;;;;;;;41.63;22.00;;;16.10;66.50;;;;;;7372458;19;20027;-80
2022/05/05 06:45:25;;;;;;;38.53;23.00;;;16.20;66.10;;;;;;7374074;19;20060;-80
2022/05/05 06:47:54;;;;;;;42.35;23.50;;;16.20;65.80;;;;;;7374787;19;20013;-79
2022/05/05 06:50:23;;;;;;;34.42;21.27;;;16.30;65.80;;;;;;7372511;19;20332;-80
2022/05/05 06:52:52;;;;;;;40.35;23.27;;;16.40;65.50;;;;;;7396826;19;20023;-80
2022/05/05 06:55:21;;;;;;;39.80;23.30;;;16.30;65.50;;;;;;7372852;19;20018;-80
2022/05/05 06:57:50;;;;;;;41.97;23.95;;;16.30;65.80;;;;;;7377476;19;20007;-80
2022/05/05 07:00:21;;;;;;;37.85;22.67;;;16.20;65.80;;;;;;7371145;19;20014;-81
2022/05/05 07:02:48;;;;;;;37.60;22.48;;;16.20;66.10;;;;;;7372145;19;20027;-80
2022/05/05 07:05:26;;;;;;;40.38;22.80;;;16.20;66.20;;;;;;7370919;19;20026;-80
2022/05/05 07:07:56;;;;;;;41.28;23.27;;;16.20;66.30;;;;;;7393312;19;20110;-80
2022/05/05 07:13:07;;;;;;;41.03;23.05;;;16.30;66.30;;;;;;7369449;19;20018;-82
2022/05/05 07:15:40;;;;;;;42.03;23.17;;;16.10;66.30;;;;;;7371284;19;20770;-81
2022/05/05 07:18:09;;;;;;;38.38;22.13;;;16.00;66.60;;;;;;7371410;19;20011;-81
2022/05/05 07:20:38;;;;;;;39.08;21.98;;;15.90;66.90;;;;;;7373090;19;20038;-81
2022/05/05 07:23:11;;;;;;;35.55;21.20;;;15.90;67.20;;;;;;7403150;19;20027;-81
2022/05/05 07:25:40;;;;;;;36.90;21.55;;;16.10;67.10;;;;;;7374038;19;20427;-83
2022/05/05 07:28:09;;;;;;;39.85;22.30;;;16.30;66.80;;;;;;7371654;19;20015;-80
2022/05/05 07:30:41;;;;;;;39.83;22.23;;;16.30;66.30;;;;;;7367484;19;20019;-81
2022/05/05 07:33:10;;;;;;;39.08;22.55;;;16.20;66.40;;;;;;7375338;19;20446;-82
2022/05/05 07:35:39;;;;;;;32.88;20.30;;;16.20;66.70;;;;;;7383602;19;20010;-81
2022/05/05 07:38:08;;;;;;;40.97;21.65;;;16.30;66.30;;;;;;7404592;19;20287;-81
2022/05/05 07:40:37;;;;;;;35.28;20.20;;;16.20;66.20;;;;;;7369412;19;20031;-81
2022/05/05 07:43:07;;;;;;;37.88;19.55;;;16.40;66.20;;;;;;7370578;19;20455;-81
2022/05/05 07:45:35;;;;;;;33.05;19.75;;;16.40;65.90;;;;;;7371766;19;20472;-82
2022/05/05 07:48:08;;;;;;;35.58;20.08;;;16.60;65.20;;;;;;7372864;19;20403;-82
2022/05/05 07:50:37;;;;;;;27.45;18.33;;;16.60;64.70;;;;;;7377263;19;20086;-82
2022/05/05 07:53:06;;;;;;;29.90;18.10;;;16.70;64.50;;;;;;7393390;19;20589;-81
2022/05/05 07:55:35;;;;;;;35.03;18.27;;;16.60;63.90;;;;;;7372217;19;20014;-82
2022/05/05 07:58:04;;;;;;;30.50;18.35;;;16.50;64.10;;;;;;7371294;19;20014;-81
2022/05/05 08:00:33;;;;;;;31.38;19.17;;;16.20;64.40;;;;;;7369548;19;20323;-81
2022/05/05 08:03:02;;;;;;;27.63;17.73;;;16.30;65.00;;;;;;7371747;19;20026;-82
2022/05/05 08:05:33;;;;;;;35.67;18.27;;;16.40;64.70;;;;;;7368732;19;20741;-81
2022/05/05 08:08:02;;;;;;;;;;;16.60;64.60;;;;;;7387740;19;20014;-81
2022/05/05 08:10:32;;;;;;;25.13;17.33;;;16.80;64.40;;;;;;7370355;19;19997;-82
2022/05/05 08:13:00;;;;;;;26.73;18.23;;;16.80;63.90;;;;;;7372102;19;20019;-82
2022/05/05 08:15:29;;;;;;;29.77;16.27;;;16.90;63.50;;;;;;7373676;19;20038;-80
2022/05/05 08:18:21;;;;;;;25.88;16.42;;;16.90;63.20;;;;;;7369569;19;20035;-82
2022/05/05 08:21:05;;;;;;;22.58;14.98;;;17.10;62.90;;;;;;7371880;19;20455;-83
2022/05/05 08:23:47;;;;;;;21.45;14.80;;;17.30;62.10;;;;;;7373278;19;20037;-86
2022/05/05 08:29:03;;;;;;;38.40;24.35;;;17.50;61.80;;;;;;7391980;19;20341;-83
2022/05/05 08:31:32;;;;;;;32.28;18.90;;;17.30;61.60;;;;;;7373412;19;20019;-80
2022/05/05 08:34:00;;;;;;;29.33;17.38;;;17.20;62.10;;;;;;7367128;19;20106;-80
2022/05/05 08:36:32;;;;;;;25.77;16.52;;;17.30;62.10;;;;;;7367097;19;20035;-79
2022/05/05 08:39:01;;;;;;;18.33;13.95;;;17.30;61.90;;;;;;7370481;19;20070;-78
2022/05/05 08:41:29;;;;;;;19.95;13.63;;;17.40;61.20;;;;;;7370950;19;20499;-80
2022/05/05 08:43:59;;;;;;;20.73;14.35;;;17.50;61.30;;;;;;7386581;19;20023;-79
2022/05/05 08:46:30;;;;;;;21.80;14.93;;;17.50;60.80;;;;;;7364867;19;20434;-80
2022/05/05 08:49:04;;;;;;;20.20;13.70;;;17.50;60.60;;;;;;7366118;19;20625;-80
2022/05/05 08:51:44;;;;;;;23.08;12.73;;;17.60;60.30;;;;;;7368713;19;20091;-80
2022/05/05 08:54:16;;;;;;;20.60;13.13;;;17.80;59.90;;;;;;7366941;19;20047;-79
2022/05/05 08:57:23;;;;;;;18.05;11.38;;;18.00;59.30;;;;;;7367990;19;20024;-82
2022/05/05 09:06:09;;;;;;;18.17;12.00;;;18.30;58.20;;;;;;7347304;19;20074;-84
2022/05/05 09:08:46;;;;;;;19.65;12.27;;;18.30;58.60;;;;;;7391252;19;20035;-81
2022/05/05 09:11:20;;;;;;;21.15;12.45;;;18.40;58.50;;;;;;7365344;19;20032;-78
2022/05/05 09:13:50;;;;;;;73.43;48.92;;;18.30;58.90;;;;;;7366454;19;20040;-79
2022/05/05 09:16:28;;;;;;;31.25;18.42;;;18.40;58.40;;;;;;7366289;19;20082;-82
2022/05/05 09:18:57;;;;;;;23.92;15.02;;;18.40;58.40;;;;;;7365656;19;20081;-81
2022/05/05 09:21:38;;;;;;;19.92;13.40;;;18.60;58.00;;;;;;7393369;19;20022;-81
2022/05/05 09:26:58;;;;;;;21.05;11.25;;;18.30;57.20;;;;;;7373169;19;20153;-83
2022/05/05 09:29:27;;;;;;;23.20;10.75;;;18.60;57.40;;;;;;7376626;19;20020;-83
2022/05/05 09:31:56;;;;;;;19.45;11.05;;;18.60;56.50;;;;;;7384070;19;20014;-85
2022/05/05 09:34:25;;;;;;;17.55;10.85;;;18.70;56.90;;;;;;7376881;19;20031;-83
2022/05/05 09:36:54;;;;;;;18.80;11.60;;;18.70;57.10;;;;;;7373411;19;20014;-83
2022/05/05 09:39:26;;;;;;;14.85;10.88;;;18.70;57.00;;;;;;7394632;19;20018;-83
2022/05/05 09:41:54;;;;;;;17.38;10.68;;;18.60;57.10;;;;;;7370275;19;20438;-82
2022/05/05 09:44:24;;;;;;;16.45;10.95;;;18.50;56.80;;;;;;7372131;19;20416;-83
2022/05/05 09:46:53;;;;;;;20.13;12.98;;;18.30;57.30;;;;;;7377027;19;20443;-87
2022/05/05 09:49:22;;;;;;;17.83;10.07;;;18.20;58.10;;;;;;7375782;19;20014;-87
2022/05/05 10:00:23;;;;;;;14.40;6.38;;;18.40;56.10;;;;;;7376966;19;20014;-86
2022/05/05 10:05:42;;;;;;;8.10;5.15;;;18.60;55.10;;;;;;7374954;19;20014;-87
2022/05/05 10:08:12;;;;;;;9.70;4.97;;;18.60;53.90;;;;;;7374324;19;20102;-81
2022/05/05 10:10:44;;;;;;;7.35;5.38;;;18.90;54.50;;;;;;7373815;19;20007;-81
2022/05/05 10:13:15;;;;;;;8.88;4.93;;;19.10;54.10;;;;;;7374608;19;20035;-85
2022/05/05 10:15:44;;;;;;;8.35;4.97;;;19.00;54.20;;;;;;7372499;19;20640;-83
2022/05/05 10:18:15;;;;;;;7.65;5.75;;;19.00;53.60;;;;;;7395890;19;20013;-83
2022/05/05 10:20:45;;;;;;;12.05;5.95;;;18.90;54.00;;;;;;7380866;19;20022;-85
2022/05/05 10:23:21;;;;;;;7.88;5.10;;;18.80;54.60;;;;;;7380017;19;20015;-87
2022/05/05 10:25:57;;;;;;;26.00;17.15;;;18.80;54.90;;;;;;7371036;19;20011;-87
2022/05/05 10:28:47;;;;;;;38.95;22.65;;;18.70;54.10;;;;;;7379675;19;20022;-85
2022/05/05 10:31:47;;;;;;;20.40;9.85;;;18.50;53.70;;;;;;7378664;19;20014;-82
2022/05/05 10:34:20;;;;;;;7.97;4.55;;;18.60;52.70;;;;;;7383266;19;20006;-83
2022/05/05 10:37:04;;;;;;;8.10;4.80;;;18.70;52.50;;;;;;7390277;19;20018;-82
2022/05/05 10:39:50;;;;;;;10.93;5.30;;;19.00;52.90;;;;;;7382066;19;20024;-84
2022/05/05 10:42:37;;;;;;;8.63;4.13;;;18.90;53.20;;;;;;7407278;19;20031;-83
2022/05/05 10:45:17;;;;;;;11.63;4.80;;;19.00;53.90;;;;;;7382386;19;20041;-86
2022/05/05 10:48:19;;;;;;;7.93;4.00;;;19.10;52.80;;;;;;7385696;19;20038;-87
2022/05/05 10:50:53;;;;;;;6.75;3.92;;;19.20;51.50;;;;;;7382634;19;20010;-80
2022/05/05 10:53:33;;;;;;;10.15;3.30;;;19.00;51.50;;;;;;7372229;19;20018;-78
2022/05/05 10:56:04;;;;;;;5.72;3.80;;;19.00;51.90;;;;;;7373116;19;20010;-78
2022/05/05 10:59:06;;;;;;;3.75;3.22;;;19.00;50.90;;;;;;7373416;19;20102;-78
2022/05/05 11:02:00;;;;;;;4.88;2.90;;;19.00;50.20;;;;;;7372130;19;20015;-78
2022/05/05 11:04:33;;;;;;;4.57;2.50;;;19.10;49.80;;;;;;7370429;19;20006;-77
2022/05/05 11:07:29;;;;;;;4.90;2.80;;;19.10;50.00;;;;;;7372425;19;20018;-78
2022/05/05 11:09:57;;;;;;;6.28;2.72;;;19.30;50.20;;;;;;7372389;19;20014;-79
2022/05/05 11:12:33;;;;;;;5.20;2.50;;;19.50;49.50;;;;;;7398945;19;20014;-78
2022/05/05 11:23:27;;;;;;;4.28;3.20;;;19.60;49.50;;;;;;7367376;19;20079;-79
2022/05/05 11:26:00;;;;;;;5.15;3.20;;;19.30;50.00;;;;;;7369570;19;20373;-79
2022/05/05 11:28:31;;;;;;;6.90;2.88;;;19.20;50.80;;;;;;7370888;19;20074;-79
2022/05/05 11:31:03;;;;;;;7.32;3.00;;;19.10;50.90;;;;;;7370070;19;20010;-80
2022/05/05 11:33:31;;;;;;;;;;;18.90;50.90;;;;;;7372441;19;20021;-79
2022/05/05 11:36:02;;;;;;;5.47;2.97;;;18.90;51.20;;;;;;7398732;19;19940;-79
2022/05/05 11:38:32;;;;;;;3.35;2.80;;;18.80;50.90;;;;;;7371038;19;20006;-79
2022/05/05 11:41:06;;;;;;;6.68;2.92;;;18.80;51.30;;;;;;7371089;19;20439;-79
2022/05/05 11:46:20;;;;;;;5.78;3.55;;;18.80;51.40;;;;;;7370303;19;20014;-79
2022/05/05 11:48:56;;;;;;;4.50;2.95;;;18.90;51.70;;;;;;7371557;19;20858;-80
2022/05/05 11:51:26;;;;;;;4.97;2.90;;;18.80;51.80;;;;;;7390302;19;20370;-79
2022/05/05 11:54:07;;;;;;;4.45;2.70;;;18.90;51.90;;;;;;7368536;19;20081;-79
2022/05/05 11:56:37;;;;;;;6.60;2.60;;;18.90;51.50;;;;;;7368705;19;20392;-79
2022/05/05 12:02:06;;;;;;;4.93;2.33;;;19.10;51.20;;;;;;7375582;19;20025;-80
2022/05/05 12:04:37;;;;;;;8.45;2.85;;;19.10;50.70;;;;;;7371189;19;20015;-79
2022/05/05 12:07:07;;;;;;;4.30;2.90;;;19.30;50.20;;;;;;7367271;19;20021;-79
2022/05/05 12:09:37;;;;;;;6.20;2.50;;;19.20;50.80;;;;;;7368997;19;20069;-79
2022/05/05 12:12:20;;;;;;;4.07;2.22;;;19.20;50.60;;;;;;7387308;19;20593;-79
2022/05/05 12:14:52;;;;;;;3.38;2.47;;;19.20;49.80;;;;;;7367497;19;20043;-80
2022/05/05 12:17:23;;;;;;;;;;;19.20;50.40;;;;;;7368397;19;20081;-79
2022/05/05 12:19:54;;;;;;;5.30;2.38;;;19.40;50.10;;;;;;7365640;19;19974;-79
2022/05/05 12:22:23;;;;;;;7.97;2.50;;;19.40;49.60;;;;;;7371242;19;20019;-79
2022/05/05 12:24:52;;;;;;;4.13;2.40;;;19.40;49.10;;;;;;7370552;19;20014;-79
2022/05/05 12:27:26;;;;;;;4.18;2.10;;;19.60;49.50;;;;;;7389985;19;20167;-79
2022/05/05 12:29:55;;;;;;;5.25;2.65;;;19.80;49.60;;;;;;7367104;19;20010;-79
2022/05/05 12:32:26;;;;;;;5.93;2.00;;;20.00;49.40;;;;;;7368301;19;20462;-78
2022/05/05 12:35:03;;;;;;;;;;;20.10;48.80;;;;;;7369577;19;20093;-79
2022/05/05 12:37:32;;;;;;;6.60;2.30;;;20.30;48.60;;;;;;7369557;19;19928;-79
2022/05/05 12:40:03;;;;;;;4.80;1.98;;;20.30;48.50;;;;;;7369198;19;20098;-79
2022/05/05 12:42:43;;;;;;;3.35;2.00;;;20.30;48.50;;;;;;7367969;19;20015;-79
2022/05/05 12:45:16;;;;;;;4.82;2.20;;;20.30;48.60;;;;;;7388187;19;20011;-79
2022/05/05 12:47:50;;;;;;;3.33;1.88;;;20.30;48.90;;;;;;7367859;19;20053;-79
2022/05/05 12:50:32;;;;;;;4.03;1.90;;;20.10;48.30;;;;;;7367529;19;20015;-79
2022/05/05 13:01:05;;;;;;;6.45;2.30;;;19.80;48.30;;;;;;7368172;19;20018;-79
2022/05/05 13:03:37;;;;;;;2.55;1.77;;;19.60;48.60;;;;;;7365145;19;20114;-77
2022/05/05 13:06:07;;;;;;;3.88;2.20;;;19.60;48.90;;;;;;7387454;19;20098;-78
2022/05/05 13:08:35;;;;;;;4.20;1.73;;;19.60;48.60;;;;;;7365902;19;20588;-77
2022/05/05 13:11:04;;;;;;;5.03;2.00;;;19.70;48.80;;;;;;7367489;19;20439;-79
2022/05/05 13:13:33;;;;;;;4.97;2.38;;;19.70;48.40;;;;;;7367932;19;20090;-79
2022/05/05 13:16:02;;;;;;;5.40;2.53;;;19.70;48.90;;;;;;7367577;19;20018;-78
2022/05/05 13:18:30;;;;;;;6.20;2.30;;;19.80;49.00;;;;;;7369191;19;20019;-78
2022/05/05 13:21:02;;;;;;;2.97;1.80;;;19.80;48.50;;;;;;7386575;19;20022;-78
2022/05/05 13:23:30;;;;;;;3.25;1.88;;;20.00;48.70;;;;;;7365063;19;20062;-78
2022/05/05 13:25:59;;;;;;;3.83;1.77;;;20.20;48.60;;;;;;7366507;19;20617;-78
2022/05/05 13:28:28;;;;;;;4.63;2.08;;;20.20;48.00;;;;;;7365658;19;20443;-79
2022/05/05 13:30:57;;;;;;;11.32;1.73;;;20.20;47.30;;;;;;7365694;19;20018;-81
2022/05/05 13:33:26;;;;;;;3.83;1.88;;;20.10;47.90;;;;;;7388905;19;20443;-80
2022/05/05 13:36:01;;;;;;;1.98;1.83;;;20.30;48.20;;;;;;7367083;19;20117;-85
2022/05/05 13:38:30;;;;;;;6.88;2.33;;;20.20;47.60;;;;;;7372447;19;20024;-89
2022/05/05 13:40:59;;;;;;;5.88;2.30;;;20.30;47.50;;;;;;7374591;19;20471;-83
2022/05/05 13:43:27;;;;;;;3.13;1.95;;;20.10;47.20;;;;;;7367191;19;20027;-81
2022/05/05 13:45:56;;;;;;;4.30;1.67;;;20.10;47.00;;;;;;7378850;19;20011;-89
2022/05/05 13:48:25;;;;;;;1.70;1.60;;;20.30;47.70;;;;;;7402585;19;20130;-89
2022/05/05 13:50:53;;;;;;;4.68;1.90;;;20.40;48.10;;;;;;7384024;19;20010;-87
2022/05/05 13:53:25;;;;;;;2.95;1.80;;;20.50;48.40;;;;;;7380323;19;20026;-86
2022/05/05 13:55:54;;;;;;;1.95;1.63;;;20.40;47.20;;;;;;7374889;19;20127;-83
2022/05/05 13:58:24;;;;;;;2.90;1.52;;;20.50;46.80;;;;;;7376012;19;20018;-86
2022/05/05 14:00:52;;;;;;;2.80;2.08;;;20.60;46.60;;;;;;7373914;19;20060;-82
2022/05/05 14:03:21;;;;;;;5.93;3.17;;;20.40;46.30;;;;;;7394097;19;20017;-82